sensor_id;sensor_type;location;lat;lon;timestamp;temperature;humidity
23989;DHT22;12202;52.136;5.592;2022-12-10T11:24:17;-0.50;99.90
23989;DHT22;12202;52.136;5.592;2022-12-10T11:27:03;-0.30;99.90
23989;DHT22;12202;52.136;5.592;2022-12-10T11:32:39;-0.40;99.90
23989;DHT22;12202;52.136;5.592;2022-12-10T11:35:38;0.00;99.90
23989;DHT22;12202;52.136;5.592;2022-12-10T11:57:03;-0.70;99.90
23989;DHT22;12202;52.136;5.592;2022-12-10T11:59:41;-0.20;99.90
23989;DHT22;12202;52.136;5.592;2022-12-10T12:02:46;-0.60;99.90
23989;DHT22;12202;52.136;5.592;2022-12-10T12:08:12;-0.30;99.90
23989;DHT22;12202;52.136;5.592;2022-12-10T12:13:48;-0.30;99.90
23989;DHT22;12202;52.136;5.592;2022-12-10T12:16:27;-0.30;99.90
23989;DHT22;12202;52.136;5.592;2022-12-10T12:21:20;-0.80;99.90
23989;DHT22;12202;52.136;5.592;2022-12-10T12:24:29;-0.60;99.90
23989;DHT22;12202;52.136;5.592;2022-12-10T12:26:57;-0.50;99.90
23989;DHT22;12202;52.136;5.592;2022-12-10T12:29:44;-0.40;99.90
23989;DHT22;12202;52.136;5.592;2022-12-10T12:32:20;-0.30;99.90
23989;DHT22;12202;52.136;5.592;2022-12-10T12:34:59;-0.50;99.90
23989;DHT22;12202;52.136;5.592;2022-12-10T12:37:35;-0.40;99.90
23989;DHT22;12202;52.136;5.592;2022-12-10T12:40:30;-0.40;99.90
23989;DHT22;12202;52.136;5.592;2022-12-10T12:43:10;-0.40;99.90
23989;DHT22;12202;52.136;5.592;2022-12-10T12:45:45;-0.40;99.90
23989;DHT22;12202;52.136;5.592;2022-12-10T12:53:38;0.30;99.90
23989;DHT22;12202;52.136;5.592;2022-12-10T12:56:05;-0.30;99.90
23989;DHT22;12202;52.136;5.592;2022-12-10T12:58:47;0.10;99.90
23989;DHT22;12202;52.136;5.592;2022-12-10T13:02:13;-0.40;99.90
23989;DHT22;12202;52.136;5.592;2022-12-10T13:04:12;-0.10;99.90
23989;DHT22;12202;52.136;5.592;2022-12-10T13:06:39;0.10;99.90
23989;DHT22;12202;52.136;5.592;2022-12-10T13:11:44;-0.20;99.90
23989;DHT22;12202;52.136;5.592;2022-12-10T13:14:14;-0.20;99.90
23989;DHT22;12202;52.136;5.592;2022-12-10T13:27:24;-0.20;99.90
23989;DHT22;12202;52.136;5.592;2022-12-10T13:38:17;0.20;99.90
23989;DHT22;12202;52.136;5.592;2022-12-10T13:40:43;-0.30;99.90
23989;DHT22;12202;52.136;5.592;2022-12-10T13:43:53;-0.20;99.90
23989;DHT22;12202;52.136;5.592;2022-12-10T13:49:25;0.00;99.90
23989;DHT22;12202;52.136;5.592;2022-12-10T13:51:55;-0.30;99.90
23989;DHT22;12202;52.136;5.592;2022-12-10T13:57:34;-0.20;99.90
23989;DHT22;12202;52.136;5.592;2022-12-10T14:00:18;-0.20;99.90
23989;DHT22;12202;52.136;5.592;2022-12-10T14:08:36;-0.10;99.90
23989;DHT22;12202;52.136;5.592;2022-12-10T14:11:06;-0.60;99.90
23989;DHT22;12202;52.136;5.592;2022-12-10T14:13:42;-0.20;99.90
23989;DHT22;12202;52.136;5.592;2022-12-10T14:16:14;0.00;99.90
23989;DHT22;12202;52.136;5.592;2022-12-10T14:18:46;-0.10;99.90
23989;DHT22;12202;52.136;5.592;2022-12-10T14:21:15;0.60;99.90
23989;DHT22;12202;52.136;5.592;2022-12-10T14:23:46;-0.10;99.90
23989;DHT22;12202;52.136;5.592;2022-12-10T14:26:18;-0.40;99.90
23989;DHT22;12202;52.136;5.592;2022-12-10T14:31:41;-0.20;99.90
23989;DHT22;12202;52.136;5.592;2022-12-10T14:34:14;-0.20;99.90
23989;DHT22;12202;52.136;5.592;2022-12-10T14:36:47;-0.50;99.90
23989;DHT22;12202;52.136;5.592;2022-12-10T14:39:25;-0.40;99.90
23989;DHT22;12202;52.136;5.592;2022-12-10T14:41:53;-0.30;99.90
23989;DHT22;12202;52.136;5.592;2022-12-10T14:44:21;-0.10;99.90
23989;DHT22;12202;52.136;5.592;2022-12-10T14:46:48;-0.40;99.90
23989;DHT22;12202;52.136;5.592;2022-12-10T14:49:20;-0.20;99.90
23989;DHT22;12202;52.136;5.592;2022-12-10T14:51:46;-0.30;99.90
23989;DHT22;12202;52.136;5.592;2022-12-10T14:54:30;0.10;99.90
23989;DHT22;12202;52.136;5.592;2022-12-10T14:56:58;-0.10;99.90
23989;DHT22;12202;52.136;5.592;2022-12-10T14:59:43;-0.30;99.90
23989;DHT22;12202;52.136;5.592;2022-12-10T15:04:48;0.30;99.90
23989;DHT22;12202;52.136;5.592;2022-12-10T15:07:18;-0.30;99.90
23989;DHT22;12202;52.136;5.592;2022-12-10T15:09:46;0.00;99.90
23989;DHT22;12202;52.136;5.592;2022-12-10T15:17:39;-0.10;99.90
23989;DHT22;12202;52.136;5.592;2022-12-10T15:20:47;0.10;99.90
23989;DHT22;12202;52.136;5.592;2022-12-10T15:26:14;-0.10;99.90
23989;DHT22;12202;52.136;5.592;2022-12-10T15:28:42;-0.20;99.90
23989;DHT22;12202;52.136;5.592;2022-12-10T15:31:22;-0.20;99.90
23989;DHT22;12202;52.136;5.592;2022-12-10T15:36:39;-0.20;99.90
23989;DHT22;12202;52.136;5.592;2022-12-10T15:49:25;-0.20;99.90
23989;DHT22;12202;52.136;5.592;2022-12-10T15:51:51;0.10;99.90
23989;DHT22;12202;52.136;5.592;2022-12-10T15:56:48;0.10;99.90
23989;DHT22;12202;52.136;5.592;2022-12-10T15:59:14;-0.10;99.90
23989;DHT22;12202;52.136;5.592;2022-12-10T16:01:39;-0.20;99.90
23989;DHT22;12202;52.136;5.592;2022-12-10T16:04:05;0.10;99.90
23989;DHT22;12202;52.136;5.592;2022-12-10T16:06:30;0.00;99.90
23989;DHT22;12202;52.136;5.592;2022-12-10T16:08:56;0.10;99.90
23989;DHT22;12202;52.136;5.592;2022-12-10T16:11:22;-0.20;99.90
23989;DHT22;12202;52.136;5.592;2022-12-10T16:13:51;-0.10;99.90
23989;DHT22;12202;52.136;5.592;2022-12-10T16:16:17;0.10;99.90
23989;DHT22;12202;52.136;5.592;2022-12-10T16:18:43;0.10;99.90
23989;DHT22;12202;52.136;5.592;2022-12-10T16:21:09;0.30;99.90
23989;DHT22;12202;52.136;5.592;2022-12-10T16:23:35;0.00;99.90
23989;DHT22;12202;52.136;5.592;2022-12-10T16:26:04;0.20;99.90
23989;DHT22;12202;52.136;5.592;2022-12-10T16:28:34;0.10;99.90
23989;DHT22;12202;52.136;5.592;2022-12-10T16:30:59;0.20;99.90
23989;DHT22;12202;52.136;5.592;2022-12-10T16:33:26;0.40;99.90
23989;DHT22;12202;52.136;5.592;2022-12-10T16:35:54;0.30;99.90
23989;DHT22;12202;52.136;5.592;2022-12-10T16:38:20;0.10;99.90
23989;DHT22;12202;52.136;5.592;2022-12-10T16:40:47;0.10;99.90
23989;DHT22;12202;52.136;5.592;2022-12-10T16:43:18;0.10;99.90
23989;DHT22;12202;52.136;5.592;2022-12-10T16:45:45;0.40;99.90
23989;DHT22;12202;52.136;5.592;2022-12-10T16:48:10;0.20;99.90
23989;DHT22;12202;52.136;5.592;2022-12-10T16:50:36;0.40;99.90
23989;DHT22;12202;52.136;5.592;2022-12-10T16:55:48;0.40;99.90
23989;DHT22;12202;52.136;5.592;2022-12-10T16:58:15;1.00;99.90
23989;DHT22;12202;52.136;5.592;2022-12-10T17:00:46;0.20;99.90
23989;DHT22;12202;52.136;5.592;2022-12-10T17:03:13;0.30;99.90
23989;DHT22;12202;52.136;5.592;2022-12-10T17:05:55;1.20;99.90
23989;DHT22;12202;52.136;5.592;2022-12-10T17:08:22;0.30;99.90
23989;DHT22;12202;52.136;5.592;2022-12-10T17:10:48;0.10;99.90
23989;DHT22;12202;52.136;5.592;2022-12-10T17:13:34;0.10;99.90
23989;DHT22;12202;52.136;5.592;2022-12-10T17:16:00;0.20;99.90
23989;DHT22;12202;52.136;5.592;2022-12-10T17:18:26;0.30;99.90
23989;DHT22;12202;52.136;5.592;2022-12-10T17:20:51;0.10;99.90
23989;DHT22;12202;52.136;5.592;2022-12-10T17:23:17;0.50;99.90
23989;DHT22;12202;52.136;5.592;2022-12-10T17:25:43;0.10;99.90
23989;DHT22;12202;52.136;5.592;2022-12-10T17:28:19;0.00;99.90
23989;DHT22;12202;52.136;5.592;2022-12-10T17:30:45;0.20;99.90
23989;DHT22;12202;52.136;5.592;2022-12-10T17:33:15;0.40;99.90
23989;DHT22;12202;52.136;5.592;2022-12-10T17:35:44;0.30;99.90
23989;DHT22;12202;52.136;5.592;2022-12-10T17:38:22;0.10;99.90
23989;DHT22;12202;52.136;5.592;2022-12-10T17:40:49;0.40;99.90
23989;DHT22;12202;52.136;5.592;2022-12-10T17:43:15;0.10;99.90
23989;DHT22;12202;52.136;5.592;2022-12-10T17:45:41;0.40;99.90
23989;DHT22;12202;52.136;5.592;2022-12-10T17:48:13;0.40;99.90
23989;DHT22;12202;52.136;5.592;2022-12-10T17:50:44;0.30;99.90
23989;DHT22;12202;52.136;5.592;2022-12-10T17:53:12;0.00;99.90
23989;DHT22;12202;52.136;5.592;2022-12-10T17:55:43;0.20;99.90
23989;DHT22;12202;52.136;5.592;2022-12-10T17:58:11;0.50;99.90
23989;DHT22;12202;52.136;5.592;2022-12-10T18:00:37;0.10;99.90
23989;DHT22;12202;52.136;5.592;2022-12-10T18:03:03;0.50;99.90
23989;DHT22;12202;52.136;5.592;2022-12-10T18:05:29;0.20;99.90
23989;DHT22;12202;52.136;5.592;2022-12-10T18:07:55;0.40;99.90
23989;DHT22;12202;52.136;5.592;2022-12-10T18:10:27;0.50;99.90
23989;DHT22;12202;52.136;5.592;2022-12-10T18:12:55;0.30;99.90
23989;DHT22;12202;52.136;5.592;2022-12-10T18:15:23;0.50;99.90
23989;DHT22;12202;52.136;5.592;2022-12-10T18:17:50;0.20;99.90
23989;DHT22;12202;52.136;5.592;2022-12-10T18:20:31;0.40;99.90
23989;DHT22;12202;52.136;5.592;2022-12-10T18:22:58;0.60;99.90
23989;DHT22;12202;52.136;5.592;2022-12-10T18:25:25;0.40;99.90
23989;DHT22;12202;52.136;5.592;2022-12-10T18:27:51;0.50;99.90
23989;DHT22;12202;52.136;5.592;2022-12-10T18:30:20;0.10;99.90
23989;DHT22;12202;52.136;5.592;2022-12-10T18:32:47;0.10;99.90
23989;DHT22;12202;52.136;5.592;2022-12-10T18:35:13;0.80;99.90
23989;DHT22;12202;52.136;5.592;2022-12-10T18:37:39;0.50;99.90
23989;DHT22;12202;52.136;5.592;2022-12-10T18:40:06;0.50;99.90
23989;DHT22;12202;52.136;5.592;2022-12-10T18:42:32;0.60;99.90
23989;DHT22;12202;52.136;5.592;2022-12-10T18:44:58;0.40;99.90
23989;DHT22;12202;52.136;5.592;2022-12-10T18:47:24;0.00;99.90
23989;DHT22;12202;52.136;5.592;2022-12-10T18:49:50;0.00;99.90
23989;DHT22;12202;52.136;5.592;2022-12-10T18:52:16;0.30;99.90
23989;DHT22;12202;52.136;5.592;2022-12-10T18:54:42;0.60;99.90
23989;DHT22;12202;52.136;5.592;2022-12-10T18:57:14;0.50;99.90
23989;DHT22;12202;52.136;5.592;2022-12-10T18:59:41;0.30;99.90
23989;DHT22;12202;52.136;5.592;2022-12-10T19:02:07;0.10;99.90
23989;DHT22;12202;52.136;5.592;2022-12-10T19:04:33;1.10;99.90
23989;DHT22;12202;52.136;5.592;2022-12-10T19:06:58;0.60;99.90
23989;DHT22;12202;52.136;5.592;2022-12-10T19:09:24;0.50;99.90
23989;DHT22;12202;52.136;5.592;2022-12-10T19:11:50;1.10;99.90
23989;DHT22;12202;52.136;5.592;2022-12-10T19:14:20;0.40;99.90
23989;DHT22;12202;52.136;5.592;2022-12-10T19:16:48;0.60;99.90
23989;DHT22;12202;52.136;5.592;2022-12-10T19:19:15;0.50;99.90
23989;DHT22;12202;52.136;5.592;2022-12-10T19:21:41;0.60;99.90
23989;DHT22;12202;52.136;5.592;2022-12-10T19:24:08;0.60;99.90
23989;DHT22;12202;52.136;5.592;2022-12-10T19:26:37;0.70;99.90
23989;DHT22;12202;52.136;5.592;2022-12-10T19:31:34;0.50;99.90
23989;DHT22;12202;52.136;5.592;2022-12-10T19:34:00;0.70;99.90
23989;DHT22;12202;52.136;5.592;2022-12-10T19:36:27;0.60;99.90
23989;DHT22;12202;52.136;5.592;2022-12-10T19:38:57;0.40;99.90
23989;DHT22;12202;52.136;5.592;2022-12-10T19:41:26;0.50;99.90
23989;DHT22;12202;52.136;5.592;2022-12-10T19:43:52;0.80;99.90
23989;DHT22;12202;52.136;5.592;2022-12-10T19:46:23;0.70;99.90
23989;DHT22;12202;52.136;5.592;2022-12-10T19:48:53;1.10;99.90
23989;DHT22;12202;52.136;5.592;2022-12-10T19:51:19;0.60;99.90
23989;DHT22;12202;52.136;5.592;2022-12-10T19:56:30;1.60;99.90
23989;DHT22;12202;52.136;5.592;2022-12-10T19:59:00;0.50;99.90
23989;DHT22;12202;52.136;5.592;2022-12-10T20:01:26;0.50;99.90
23989;DHT22;12202;52.136;5.592;2022-12-10T20:03:52;0.70;99.90
23989;DHT22;12202;52.136;5.592;2022-12-10T20:06:29;0.80;99.90
23989;DHT22;12202;52.136;5.592;2022-12-10T20:09:06;0.60;99.90
23989;DHT22;12202;52.136;5.592;2022-12-10T20:11:34;0.70;99.90
23989;DHT22;12202;52.136;5.592;2022-12-10T20:14:00;0.30;99.90
23989;DHT22;12202;52.136;5.592;2022-12-10T20:16:29;0.50;99.90
23989;DHT22;12202;52.136;5.592;2022-12-10T20:18:55;0.70;99.90
23989;DHT22;12202;52.136;5.592;2022-12-10T20:21:21;0.50;99.90
23989;DHT22;12202;52.136;5.592;2022-12-10T20:23:48;0.60;99.90
23989;DHT22;12202;52.136;5.592;2022-12-10T20:26:23;0.50;99.90
23989;DHT22;12202;52.136;5.592;2022-12-10T20:28:52;0.70;99.90
23989;DHT22;12202;52.136;5.592;2022-12-10T20:31:18;0.70;99.90
23989;DHT22;12202;52.136;5.592;2022-12-10T20:33:44;0.40;99.90
